Time;durP1;ratioP1;P1;durP2;ratioP2;P2;SDS_P1;SDS_P2;PMS_P1;PMS_P2;Temp;Humidity;BMP_temperature;BMP_pressure;BME280_temperature;BME280_humidity;BME280_pressure;Samples;Min_cycle;Max_cycle;Signal;HPM_P1;HPM_P2
2023/03/23 00:01:10;;;;;;;17.63;11.48;;;16.40;76.80;;;;;;6098774;23;20011;-78
2023/03/23 00:03:36;;;;;;;13.98;11.40;;;16.30;76.90;;;;;;6098411;23;20010;-78
2023/03/23 00:06:05;;;;;;;14.82;11.32;;;16.40;76.90;;;;;;6094234;23;20008;-79
2023/03/23 00:08:45;;;;;;;13.13;11.23;;;16.30;76.90;;;;;;6094956;23;20003;-78
2023/03/23 00:11:16;;;;;;;15.60;11.93;;;16.30;76.50;;;;;;6096636;23;20002;-78
2023/03/23 00:13:43;;;;;;;13.10;10.68;;;16.30;77.00;;;;;;6072175;23;20321;-79
2023/03/23 00:16:17;;;;;;;15.38;11.90;;;16.30;77.20;;;;;;6095127;23;20029;-79
2023/03/23 00:18:52;;;;;;;16.58;11.63;;;16.30;77.20;;;;;;6097981;23;20003;-79
2023/03/23 00:21:25;;;;;;;13.75;11.13;;;16.30;77.20;;;;;;6097730;23;20077;-78
2023/03/23 00:23:51;;;;;;;16.45;11.48;;;16.30;77.50;;;;;;6097801;23;20010;-78
2023/03/23 00:26:18;;;;;;;15.70;11.43;;;16.30;77.50;;;;;;6096827;23;20007;-78
2023/03/23 00:28:46;;;;;;;14.07;11.38;;;16.30;77.10;;;;;;6096424;23;20279;-79
2023/03/23 00:31:12;;;;;;;13.30;11.30;;;16.20;77.60;;;;;;6097068;23;20032;-79
2023/03/23 00:33:40;;;;;;;18.25;12.70;;;16.20;77.30;;;;;;6097544;23;20009;-79
2023/03/23 00:36:11;;;;;;;13.70;11.02;;;16.20;77.40;;;;;;6097089;23;20140;-80
2023/03/23 00:38:38;;;;;;;14.88;11.82;;;16.50;78.00;;;;;;6071613;23;20017;-79
2023/03/23 00:41:05;;;;;;;12.93;11.18;;;16.20;77.90;;;;;;6097459;23;20002;-80
2023/03/23 00:43:35;;;;;;;13.48;11.38;;;16.20;77.90;;;;;;6097668;23;20007;-80
2023/03/23 00:46:08;;;;;;;16.27;12.20;;;16.10;77.20;;;;;;6095612;23;20396;-80
2023/03/23 00:48:35;;;;;;;16.02;11.27;;;16.20;77.60;;;;;;6096633;23;20057;-80
2023/03/23 00:51:05;;;;;;;12.43;10.70;;;16.10;77.60;;;;;;6071633;23;20007;-79
2023/03/23 00:53:32;;;;;;;14.20;10.73;;;16.10;77.80;;;;;;6096186;23;20002;-84
2023/03/23 00:55:58;;;;;;;14.52;11.00;;;16.10;77.80;;;;;;6095592;23;20007;-79
2023/03/23 00:58:24;;;;;;;14.80;10.57;;;16.10;77.80;;;;;;6096699;23;20337;-80
2023/03/23 01:00:51;;;;;;;13.70;10.90;;;16.10;77.90;;;;;;6072124;23;20380;-79
2023/03/23 01:03:18;;;;;;;14.27;10.73;;;16.10;77.30;;;;;;6096330;23;20133;-81
2023/03/23 01:05:46;;;;;;;14.05;11.07;;;16.10;77.70;;;;;;6096195;23;20052;-80
2023/03/23 01:08:13;;;;;;;14.63;10.85;;;16.10;77.40;;;;;;6096119;23;19999;-80
2023/03/23 01:10:40;;;;;;;11.00;9.70;;;16.10;77.10;;;;;;6097368;23;20848;-79
2023/03/23 01:13:06;;;;;;;13.50;9.80;;;16.10;77.00;;;;;;6097488;23;20057;-79
2023/03/23 01:15:32;;;;;;;13.00;9.45;;;16.10;76.80;;;;;;6097244;23;20010;-80
2023/03/23 01:17:58;;;;;;;12.68;9.48;;;16.10;76.60;;;;;;6096973;23;20117;-81
2023/03/23 01:20:26;;;;;;;12.70;9.52;;;16.10;76.50;;;;;;6097138;23;20010;-81
2023/03/23 01:22:52;;;;;;;12.90;10.20;;;16.20;76.40;;;;;;6094028;23;20357;-81
2023/03/23 01:25:19;;;;;;;12.70;10.48;;;16.10;75.70;;;;;;6096873;23;20003;-81
2023/03/23 01:27:45;;;;;;;13.75;10.35;;;16.20;76.10;;;;;;6097029;23;20006;-81
2023/03/23 01:30:12;;;;;;;12.20;10.07;;;16.20;76.10;;;;;;6097085;23;20048;-80
2023/03/23 01:32:39;;;;;;;14.98;10.95;;;16.20;75.70;;;;;;6097652;23;20007;-80
2023/03/23 01:35:05;;;;;;;14.20;10.35;;;16.20;76.10;;;;;;6096796;23;20010;-80
2023/03/23 01:37:32;;;;;;;14.25;9.60;;;16.20;76.10;;;;;;6070812;23;20013;-80
2023/03/23 01:39:58;;;;;;;14.73;11.07;;;16.20;76.00;;;;;;6097479;23;20146;-81
2023/03/23 01:42:33;;;;;;;16.60;10.75;;;16.10;76.00;;;;;;6097072;23;20438;-81
2023/03/23 01:45:19;;;;;;;13.38;10.63;;;16.10;76.20;;;;;;6097065;23;20061;-81
2023/03/23 01:48:22;;;;;;;14.25;10.85;;;16.10;76.30;;;;;;6096504;23;20030;-80
2023/03/23 01:50:57;;;;;;;14.07;11.27;;;16.00;76.20;;;;;;6036474;23;20007;-80
2023/03/23 01:53:28;;;;;;;18.40;13.32;;;16.00;76.80;;;;;;6089132;23;20010;-81
2023/03/23 01:55:57;;;;;;;16.75;13.75;;;16.00;77.20;;;;;;6096344;23;20034;-80
2023/03/23 01:58:27;;;;;;;18.92;13.77;;;16.00;77.70;;;;;;6095843;23;20485;-80
2023/03/23 02:01:00;;;;;;;17.52;14.38;;;16.00;78.80;;;;;;6096579;23;20377;-80
2023/03/23 02:03:27;;;;;;;17.27;13.40;;;16.00;78.60;;;;;;6096552;23;20006;-81
2023/03/23 02:05:54;;;;;;;16.77;13.35;;;16.00;78.80;;;;;;6096472;23;20010;-81
2023/03/23 02:08:22;;;;;;;16.40;13.80;;;16.00;79.00;;;;;;6096759;23;20418;-81
2023/03/23 02:10:47;;;;;;;19.23;14.55;;;15.90;79.00;;;;;;6097117;23;20440;-80
2023/03/23 02:13:14;;;;;;;18.70;13.52;;;15.90;79.10;;;;;;6096633;23;20002;-82
2023/03/23 02:15:54;;;;;;;18.00;13.90;;;15.90;79.30;;;;;;6096008;23;20382;-83
2023/03/23 02:18:41;;;;;;;21.20;14.35;;;15.90;79.20;;;;;;6095689;23;20030;-82
2023/03/23 02:21:48;;;;;;;20.20;14.93;;;15.90;79.30;;;;;;6096387;23;20030;-81
2023/03/23 02:24:32;;;;;;;18.27;14.10;;;15.80;79.40;;;;;;6046717;23;20530;-82
2023/03/23 02:27:28;;;;;;;17.95;13.48;;;15.80;79.70;;;;;;6067274;23;20002;-82
2023/03/23 02:30:12;;;;;;;18.77;13.23;;;15.70;79.90;;;;;;6096529;23;20017;-81
2023/03/23 02:33:11;;;;;;;18.48;12.70;;;15.70;79.90;;;;;;6095964;23;20003;-81
2023/03/23 02:35:47;;;;;;;17.75;12.15;;;15.70;79.80;;;;;;6071218;23;20009;-80
2023/03/23 02:38:21;;;;;;;17.30;12.32;;;15.60;79.60;;;;;;6095711;23;20006;-81
2023/03/23 02:40:49;;;;;;;14.13;11.30;;;15.60;79.50;;;;;;6096638;23;20002;-81
2023/03/23 02:43:20;;;;;;;14.48;11.85;;;15.50;79.00;;;;;;6096179;23;20044;-82
2023/03/23 02:45:46;;;;;;;;;;;15.50;79.30;;;;;;6097137;23;20081;-81
2023/03/23 02:48:16;;;;;;;18.92;11.60;;;15.50;78.90;;;;;;6096452;23;19936;-82
2023/03/23 02:50:46;;;;;;;16.80;12.15;;;15.40;79.40;;;;;;6096987;23;20339;-83
2023/03/23 02:53:15;;;;;;;14.20;11.15;;;15.30;78.90;;;;;;6096297;23;20010;-83
2023/03/23 02:55:43;;;;;;;15.32;10.48;;;15.30;79.40;;;;;;6096045;23;20027;-82
2023/03/23 02:58:11;;;;;;;17.95;11.23;;;15.30;79.50;;;;;;6096737;23;20011;-82
2023/03/23 03:00:38;;;;;;;14.55;10.60;;;15.20;79.40;;;;;;6096008;23;20007;-81
2023/03/23 03:03:05;;;;;;;11.88;10.23;;;15.10;79.30;;;;;;6095613;23;20070;-80
2023/03/23 03:05:43;;;;;;;13.85;10.93;;;15.00;79.30;;;;;;6096257;23;20501;-81
2023/03/23 03:08:20;;;;;;;14.20;10.75;;;15.00;79.40;;;;;;6096935;23;20077;-80
2023/03/23 03:11:08;;;;;;;12.57;10.70;;;15.00;79.40;;;;;;6096824;23;20409;-80
2023/03/23 03:14:03;;;;;;;12.55;10.63;;;15.00;79.30;;;;;;6096169;23;20429;-81
2023/03/23 03:16:35;;;;;;;13.90;11.18;;;15.00;79.80;;;;;;6098724;23;20002;-81
2023/03/23 03:19:11;;;;;;;14.45;11.00;;;14.90;79.80;;;;;;6098648;23;20007;-81
2023/03/23 03:21:41;;;;;;;14.10;10.90;;;14.90;80.00;;;;;;6098535;23;20002;-81
2023/03/23 03:24:10;;;;;;;15.38;11.75;;;14.80;80.10;;;;;;6098129;23;20014;-81
2023/03/23 03:26:47;;;;;;;17.05;12.15;;;14.80;80.20;;;;;;6098401;23;20058;-82
2023/03/23 03:29:18;;;;;;;17.42;13.30;;;14.80;80.40;;;;;;6098436;23;19999;-82
2023/03/23 03:31:45;;;;;;;15.95;13.13;;;14.80;80.40;;;;;;6098347;23;20002;-83
2023/03/23 03:34:17;;;;;;;16.35;13.05;;;14.80;80.30;;;;;;6096436;23;20007;-81
2023/03/23 03:36:45;;;;;;;15.52;13.10;;;14.80;79.90;;;;;;6098536;23;20077;-80
2023/03/23 03:39:14;;;;;;;18.55;13.00;;;14.90;80.40;;;;;;6098210;23;20076;-81
2023/03/23 03:41:41;;;;;;;18.52;13.35;;;14.80;79.80;;;;;;6097171;23;20007;-81
2023/03/23 03:44:07;;;;;;;19.08;13.40;;;14.80;79.90;;;;;;6097722;23;20002;-80
2023/03/23 03:46:35;;;;;;;16.48;13.35;;;14.80;80.30;;;;;;6098415;23;20007;-81
2023/03/23 03:49:02;;;;;;;18.17;13.65;;;14.80;80.00;;;;;;6097962;23;20090;-81
2023/03/23 03:51:29;;;;;;;16.08;13.00;;;14.90;80.50;;;;;;6097996;23;20003;-81
2023/03/23 03:53:55;;;;;;;15.15;12.95;;;14.90;80.40;;;;;;6098282;23;20000;-81
2023/03/23 03:56:25;;;;;;;17.52;13.02;;;14.90;80.50;;;;;;6098408;23;20030;-80
2023/03/23 03:58:51;;;;;;;18.13;13.23;;;14.90;80.60;;;;;;6072012;23;20437;-81
2023/03/23 04:01:18;;;;;;;14.75;12.40;;;14.80;80.70;;;;;;6097327;23;19999;-81
2023/03/23 04:03:44;;;;;;;17.45;13.40;;;14.80;80.90;;;;;;6097697;23;20010;-81
2023/03/23 04:06:12;;;;;;;17.63;14.00;;;14.90;81.20;;;;;;6097880;23;20056;-81
2023/03/23 04:08:38;;;;;;;16.58;13.38;;;14.90;81.30;;;;;;6097838;23;20307;-81
2023/03/23 04:11:04;;;;;;;21.17;14.23;;;14.90;81.20;;;;;;6098127;23;20025;-81
2023/03/23 04:13:30;;;;;;;19.83;14.98;;;14.90;81.30;;;;;;6095597;23;20081;-81
2023/03/23 04:15:56;;;;;;;18.70;15.25;;;14.90;81.40;;;;;;6098238;23;20107;-82
2023/03/23 04:18:23;;;;;;;21.95;17.25;;;14.90;81.10;;;;;;6097570;23;20429;-81
2023/03/23 04:20:50;;;;;;;22.10;17.83;;;14.90;81.70;;;;;;6097232;23;20334;-81
2023/03/23 04:23:21;;;;;;;23.88;16.70;;;14.90;81.90;;;;;;6097319;23;20049;-81
2023/03/23 04:25:48;;;;;;;25.95;19.17;;;14.90;82.10;;;;;;6097864;23;20006;-81
2023/03/23 04:28:16;;;;;;;21.58;17.70;;;14.90;82.20;;;;;;6098385;23;20006;-82
2023/03/23 04:30:43;;;;;;;26.30;18.92;;;14.90;82.00;;;;;;6097233;23;20119;-82
2023/03/23 04:33:14;;;;;;;22.85;19.00;;;14.80;82.50;;;;;;6071420;23;20445;-81
2023/03/23 04:35:41;;;;;;;22.65;18.95;;;14.90;82.70;;;;;;6097555;23;20010;-80
2023/03/23 04:38:08;;;;;;;23.48;19.38;;;14.90;83.40;;;;;;6097867;23;20012;-81
2023/03/23 04:40:40;;;;;;;28.10;19.98;;;14.80;82.90;;;;;;6071012;23;20014;-81
2023/03/23 04:43:06;;;;;;;28.20;20.13;;;14.90;82.90;;;;;;6072262;23;20338;-81
2023/03/23 04:45:33;;;;;;;25.75;19.85;;;14.90;83.00;;;;;;6097778;23;20002;-81
2023/03/23 04:48:01;;;;;;;28.27;21.20;;;14.90;83.00;;;;;;6097924;23;20002;-81
2023/03/23 04:50:32;;;;;;;28.85;19.63;;;14.90;83.00;;;;;;6071581;23;20370;-82
2023/03/23 04:53:03;;;;;;;35.55;21.05;;;14.90;83.10;;;;;;6097989;23;20014;-81
2023/03/23 04:55:36;;;;;;;24.83;19.90;;;14.90;83.30;;;;;;6096973;23;20003;-82
2023/03/23 04:58:06;;;;;;;24.02;18.45;;;14.80;83.20;;;;;;6097941;23;20430;-82
2023/03/23 05:00:34;;;;;;;25.52;20.05;;;14.80;83.30;;;;;;6096192;23;20006;-82
2023/03/23 05:03:00;;;;;;;22.00;19.10;;;14.80;83.30;;;;;;6097626;23;20085;-83
2023/03/23 05:05:27;;;;;;;23.88;19.50;;;14.80;83.30;;;;;;6097010;23;20006;-83
2023/03/23 05:07:53;;;;;;;24.88;19.75;;;14.80;83.30;;;;;;6071738;23;20634;-82
2023/03/23 05:10:19;;;;;;;22.92;18.45;;;14.70;83.10;;;;;;6071350;23;20003;-82
2023/03/23 05:12:45;;;;;;;25.00;19.98;;;14.70;83.10;;;;;;6097988;23;20003;-81
2023/03/23 05:15:12;;;;;;;25.85;20.17;;;14.60;82.90;;;;;;6097374;23;20002;-81
2023/03/23 05:17:40;;;;;;;29.63;21.95;;;14.50;82.60;;;;;;6097349;23;20006;-81
2023/03/23 05:20:11;;;;;;;27.50;20.33;;;14.50;83.00;;;;;;6071347;23;20006;-82
2023/03/23 05:22:38;;;;;;;24.85;20.33;;;14.60;83.10;;;;;;6071096;23;20042;-83
2023/03/23 05:25:04;;;;;;;26.10;20.90;;;14.60;83.20;;;;;;6097271;23;20033;-82
2023/03/23 05:27:32;;;;;;;26.55;21.17;;;14.60;83.10;;;;;;6097281;23;20014;-82
2023/03/23 05:29:58;;;;;;;24.27;19.83;;;14.60;83.10;;;;;;6097696;23;20002;-86
2023/03/23 05:32:30;;;;;;;26.88;21.48;;;14.60;83.10;;;;;;6099118;23;20017;-86
2023/03/23 05:35:00;;;;;;;26.25;21.13;;;14.60;82.50;;;;;;6100106;23;20016;-84
2023/03/23 05:37:33;;;;;;;25.92;21.35;;;14.60;83.10;;;;;;6098640;23;20092;-86
2023/03/23 05:40:05;;;;;;;26.35;21.23;;;14.60;82.90;;;;;;6098231;23;20007;-87
2023/03/23 05:42:32;;;;;;;27.60;21.73;;;14.60;83.30;;;;;;6098102;23;20007;-87
2023/03/23 05:44:58;;;;;;;26.38;21.58;;;14.60;83.50;;;;;;6098733;23;19999;-88
2023/03/23 05:47:25;;;;;;;26.85;21.00;;;14.60;83.60;;;;;;6098097;23;20002;-87
2023/03/23 05:49:51;;;;;;;34.08;25.70;;;14.60;83.60;;;;;;6072038;23;20006;-87
2023/03/23 05:52:18;;;;;;;25.73;20.70;;;14.50;83.40;;;;;;6098608;23;20013;-87
2023/03/23 05:54:44;;;;;;;27.05;21.63;;;14.50;83.40;;;;;;6073069;23;20298;-86
2023/03/23 05:57:10;;;;;;;28.30;21.50;;;14.50;83.20;;;;;;6097524;23;20089;-85
2023/03/23 05:59:36;;;;;;;28.50;22.48;;;14.50;83.60;;;;;;6096184;23;20615;-83
2023/03/23 06:02:03;;;;;;;26.27;21.80;;;14.60;83.40;;;;;;6096495;23;20014;-82
2023/03/23 06:04:28;;;;;;;29.88;23.92;;;14.60;82.80;;;;;;6097374;23;20074;-82
2023/03/23 06:06:55;;;;;;;29.10;22.92;;;;;;;;;;6070364;23;20038;-81
2023/03/23 06:09:23;;;;;;;28.73;22.75;;;14.60;82.90;;;;;;6096766;23;20006;-83
2023/03/23 06:11:49;;;;;;;35.50;24.73;;;14.60;83.80;;;;;;6070249;23;20010;-84
2023/03/23 06:14:16;;;;;;;26.80;21.75;;;14.60;83.20;;;;;;6096452;23;20003;-84
2023/03/23 06:16:41;;;;;;;28.58;22.65;;;14.70;83.20;;;;;;6071258;23;20034;-81
2023/03/23 06:24:18;;;;;;;29.13;24.02;;;14.70;81.90;;;;;;6176963;22;20024;-79
2023/03/23 06:26:44;;;;;;;27.00;21.25;;;14.70;82.50;;;;;;6214609;23;20308;-81
2023/03/23 06:29:13;;;;;;;29.00;22.95;;;14.70;82.50;;;;;;6213156;23;19993;-78
2023/03/23 06:31:47;;;;;;;25.85;21.75;;;14.70;82.60;;;;;;6212621;23;20054;-78
2023/03/23 06:34:13;;;;;;;26.00;21.20;;;14.70;82.90;;;;;;6186962;23;20001;-79
2023/03/23 06:36:39;;;;;;;32.38;23.58;;;14.70;82.90;;;;;;6214584;23;20099;-79
2023/03/23 06:39:06;;;;;;;30.20;23.17;;;14.80;82.90;;;;;;6214204;23;20023;-78
2023/03/23 06:41:32;;;;;;;29.20;21.87;;;14.80;82.60;;;;;;6213977;23;20028;-79
2023/03/23 06:43:59;;;;;;;27.48;22.85;;;14.90;82.60;;;;;;6215498;23;20197;-78
2023/03/23 06:46:25;;;;;;;27.60;22.60;;;15.00;82.50;;;;;;6215135;23;20000;-79
2023/03/23 06:48:51;;;;;;;28.73;22.02;;;15.10;82.50;;;;;;6215155;23;20005;-79
2023/03/23 06:51:18;;;;;;;27.75;22.40;;;15.10;82.30;;;;;;6214731;23;20030;-80
2023/03/23 06:53:44;;;;;;;28.23;22.92;;;15.20;82.20;;;;;;6214702;23;20043;-79
2023/03/23 06:56:11;;;;;;;28.98;21.67;;;15.30;82.10;;;;;;6215172;23;20000;-78
2023/03/23 06:58:37;;;;;;;28.20;23.15;;;15.30;82.10;;;;;;6187968;23;20001;-81
2023/03/23 07:01:03;;;;;;;29.00;22.55;;;15.40;82.20;;;;;;6213004;23;20015;-78
2023/03/23 07:03:30;;;;;;;29.05;23.58;;;15.40;82.10;;;;;;6214953;23;20007;-82
2023/03/23 07:05:57;;;;;;;28.88;25.00;;;15.60;82.00;;;;;;6215130;23;20028;-82
2023/03/23 07:08:23;;;;;;;25.77;21.60;;;15.60;81.90;;;;;;6215239;23;19996;-82
2023/03/23 07:10:52;;;;;;;29.63;23.00;;;15.60;82.00;;;;;;6215492;23;20003;-82
2023/03/23 07:13:18;;;;;;;44.90;31.93;;;15.60;81.90;;;;;;6215384;23;20009;-78
2023/03/23 07:15:44;;;;;;;32.97;26.10;;;15.60;81.50;;;;;;6214976;23;20666;-78
2023/03/23 07:18:10;;;;;;;25.10;22.08;;;15.50;82.10;;;;;;6214923;23;20330;-79
2023/03/23 07:20:37;;;;;;;32.33;22.98;;;15.40;82.10;;;;;;6215562;23;20071;-78
2023/03/23 07:23:04;;;;;;;31.77;24.88;;;15.50;82.10;;;;;;6215847;23;20351;-78
2023/03/23 07:25:32;;;;;;;29.60;23.83;;;15.50;82.10;;;;;;6188404;23;20021;-79
2023/03/23 07:28:02;;;;;;;31.73;25.60;;;15.60;82.00;;;;;;6215167;23;20092;-80
2023/03/23 07:30:29;;;;;;;29.17;23.23;;;15.70;81.80;;;;;;6214475;23;20052;-78
2023/03/23 07:32:56;;;;;;;31.52;24.33;;;15.80;81.90;;;;;;6214535;23;20001;-77
2023/03/23 07:35:23;;;;;;;30.42;25.25;;;15.90;81.80;;;;;;6214271;23;20068;-77
2023/03/23 07:37:48;;;;;;;31.85;25.45;;;15.90;81.40;;;;;;6214577;23;20004;-77
2023/03/23 07:40:15;;;;;;;36.67;29.85;;;16.00;81.40;;;;;;6188274;23;20022;-77
2023/03/23 07:42:45;;;;;;;43.08;33.60;;;15.90;81.30;;;;;;6214929;23;20000;-77
2023/03/23 07:45:12;;;;;;;41.08;32.03;;;15.80;82.00;;;;;;6215134;23;20067;-78
2023/03/23 07:47:39;;;;;;;37.33;30.00;;;15.70;82.40;;;;;;6215090;23;20419;-77
2023/03/23 07:50:06;;;;;;;32.95;25.27;;;15.70;82.60;;;;;;6215015;23;19993;-77
2023/03/23 07:52:32;;;;;;;32.53;25.52;;;15.70;82.60;;;;;;6214636;23;20433;-77
2023/03/23 07:54:58;;;;;;;31.65;25.25;;;15.80;82.30;;;;;;6188779;23;20075;-77
2023/03/23 07:57:24;;;;;;;31.77;24.45;;;15.90;82.30;;;;;;6215490;23;20004;-77
2023/03/23 07:59:50;;;;;;;32.38;24.83;;;16.00;82.30;;;;;;6215670;23;20007;-78
2023/03/23 08:02:16;;;;;;;34.97;27.27;;;16.10;82.20;;;;;;6217402;23;20054;-77
2023/03/23 08:04:42;;;;;;;33.60;25.00;;;16.30;82.20;;;;;;6217104;23;20068;-77
2023/03/23 08:07:08;;;;;;;30.83;25.55;;;16.40;82.10;;;;;;6216851;23;19997;-78
2023/03/23 08:09:33;;;;;;;27.33;23.10;;;16.50;81.90;;;;;;6217100;23;20000;-77
2023/03/23 08:11:59;;;;;;;27.92;22.52;;;16.70;81.90;;;;;;6217342;23;20426;-77
2023/03/23 08:14:28;;;;;;;36.47;23.15;;;16.80;81.70;;;;;;6217073;23;20000;-77
2023/03/23 08:16:55;;;;;;;29.48;23.55;;;16.90;81.60;;;;;;6216886;23;20373;-77
2023/03/23 08:19:22;;;;;;;31.05;25.40;;;16.90;81.20;;;;;;6216869;23;20027;-77
2023/03/23 08:21:48;;;;;;;30.85;24.50;;;17.00;81.00;;;;;;6216934;23;20005;-78
2023/03/23 08:24:14;;;;;;;33.08;24.42;;;17.10;80.90;;;;;;6216928;23;20434;-77
2023/03/23 08:26:40;;;;;;;33.15;25.15;;;17.10;80.60;;;;;;6217288;23;20000;-77
2023/03/23 08:29:06;;;;;;;29.92;24.15;;;17.20;80.40;;;;;;6216934;23;20458;-78
2023/03/23 08:31:34;;;;;;;27.08;22.05;;;17.30;80.20;;;;;;6217270;23;20001;-77
2023/03/23 08:34:00;;;;;;;28.00;22.30;;;17.30;80.00;;;;;;6217011;23;20055;-77
2023/03/23 08:36:27;;;;;;;29.60;23.60;;;17.40;80.00;;;;;;6216859;23;20001;-77
2023/03/23 08:38:53;;;;;;;37.30;26.27;;;17.50;79.30;;;;;;6216918;23;20063;-77
2023/03/23 08:41:19;;;;;;;27.48;22.00;;;17.50;78.40;;;;;;6216643;23;20004;-78
2023/03/23 08:43:46;;;;;;;26.20;21.63;;;17.60;78.70;;;;;;6216788;23;20440;-78
2023/03/23 08:46:12;;;;;;;30.85;23.85;;;17.60;78.80;;;;;;6216979;23;20008;-78
2023/03/23 08:48:38;;;;;;;26.30;21.65;;;17.70;78.70;;;;;;6216804;23;19997;-78
2023/03/23 08:51:06;;;;;;;25.15;19.90;;;17.80;78.40;;;;;;6216546;23;20024;-78
2023/03/23 08:53:32;;;;;;;22.90;19.92;;;17.90;78.00;;;;;;6216783;23;20008;-78
2023/03/23 08:56:09;;;;;;;25.45;20.92;;;17.90;77.80;;;;;;6216719;23;20001;-78
2023/03/23 08:58:36;;;;;;;29.55;21.25;;;18.00;77.60;;;;;;6190384;23;20016;-78
2023/03/23 09:01:04;;;;;;;26.48;21.52;;;18.10;77.50;;;;;;6217253;23;20000;-78
2023/03/23 09:03:30;;;;;;;30.05;24.02;;;18.10;77.00;;;;;;6216809;23;20331;-77
2023/03/23 09:06:05;;;;;;;31.40;24.48;;;18.10;76.00;;;;;;6217021;23;20085;-78
2023/03/23 09:08:32;;;;;;;30.30;20.05;;;18.10;76.10;;;;;;6217485;23;20028;-78
2023/03/23 09:11:06;;;;;;;29.23;21.88;;;18.20;76.60;;;;;;6217040;23;19997;-78
2023/03/23 09:13:33;;;;;;;23.45;19.73;;;18.20;76.20;;;;;;6217324;23;20004;-78
2023/03/23 09:15:59;;;;;;;22.88;18.20;;;18.30;76.50;;;;;;6216895;23;20000;-78
2023/03/23 09:18:25;;;;;;;26.73;19.30;;;18.40;76.20;;;;;;6217221;23;20080;-78
2023/03/23 09:20:53;;;;;;;20.80;17.08;;;18.50;75.70;;;;;;6217583;23;20008;-81
2023/03/23 09:23:20;;;;;;;24.08;17.85;;;18.70;75.60;;;;;;6216899;23;20076;-81
2023/03/23 09:25:47;;;;;;;28.60;20.23;;;18.90;75.00;;;;;;6190905;23;20009;-81
2023/03/23 09:28:13;;;;;;;24.38;19.65;;;18.90;74.10;;;;;;6216978;23;20004;-78
2023/03/23 09:30:41;;;;;;;22.02;17.08;;;18.90;73.80;;;;;;6216834;23;20455;-78
2023/03/23 09:33:07;;;;;;;22.13;17.42;;;19.00;74.20;;;;;;6216947;23;20410;-77
2023/03/23 09:35:35;;;;;;;21.98;17.40;;;18.90;74.00;;;;;;6216035;23;20371;-78
2023/03/23 09:38:02;;;;;;;18.02;16.13;;;19.00;74.00;;;;;;6216709;23;20001;-78
2023/03/23 09:40:43;;;;;;;23.58;18.23;;;19.00;73.80;;;;;;6216339;23;20000;-78
2023/03/23 09:43:21;;;;;;;21.83;16.95;;;19.10;73.30;;;;;;6189429;23;20012;-78
2023/03/23 09:46:04;;;;;;;22.30;18.17;;;19.00;73.50;;;;;;6216745;23;20004;-81
2023/03/23 09:48:36;;;;;;;21.77;17.17;;;19.10;73.60;;;;;;6189668;23;20008;-81
2023/03/23 09:51:12;;;;;;;20.15;17.58;;;19.20;73.70;;;;;;6215978;23;20075;-81
2023/03/23 09:53:46;;;;;;;20.63;16.27;;;19.40;73.50;;;;;;6216074;23;20004;-81
2023/03/23 09:56:15;;;;;;;23.58;19.02;;;19.60;73.30;;;;;;6216130;23;20028;-78
2023/03/23 09:58:50;;;;;;;26.10;19.58;;;19.80;73.00;;;;;;6216628;23;20486;-77
2023/03/23 10:01:39;;;;;;;20.42;16.25;;;19.90;72.40;;;;;;6216338;23;20005;-78
2023/03/23 10:04:26;;;;;;;20.60;14.68;;;20.10;72.30;;;;;;6215909;23;20011;-78
2023/03/23 10:06:58;;;;;;;21.23;15.38;;;20.50;72.20;;;;;;6215462;23;20024;-81
2023/03/23 10:09:24;;;;;;;15.98;13.60;;;20.70;71.20;;;;;;6215799;23;19997;-82
2023/03/23 10:12:11;;;;;;;23.05;18.65;;;20.90;70.40;;;;;;6215671;23;20425;-78
2023/03/23 10:15:01;;;;;;;27.85;19.85;;;21.00;67.40;;;;;;6215513;23;20395;-78
2023/03/23 10:17:44;;;;;;;17.23;11.57;;;20.70;65.60;;;;;;6215934;23;20011;-78
2023/03/23 10:20:12;;;;;;;15.77;11.25;;;20.60;67.60;;;;;;6216467;23;20071;-78
2023/03/23 10:22:50;;;;;;;18.33;11.88;;;20.60;67.30;;;;;;6219433;23;20071;-78
2023/03/23 10:25:21;;;;;;;15.10;11.23;;;20.50;67.40;;;;;;6216465;23;20012;-81
2023/03/23 10:27:58;;;;;;;13.35;9.52;;;20.50;67.00;;;;;;6216347;23;20365;-81
2023/03/23 10:30:27;;;;;;;13.77;8.88;;;20.60;67.00;;;;;;6216698;23;20000;-81
2023/03/23 10:33:06;;;;;;;10.00;6.68;;;20.80;65.50;;;;;;6216498;23;20027;-81
2023/03/23 10:35:38;;;;;;;9.40;6.53;;;20.90;65.20;;;;;;6216326;23;20020;-81
2023/03/23 10:38:15;;;;;;;7.75;4.97;;;21.10;64.10;;;;;;6216518;23;20473;-81
2023/03/23 10:40:54;;;;;;;8.77;5.28;;;21.20;63.30;;;;;;6216062;23;20079;-81
2023/03/23 10:43:20;;;;;;;8.82;5.30;;;21.30;62.70;;;;;;6216215;23;20438;-81
2023/03/23 10:45:53;;;;;;;7.55;4.95;;;21.50;62.50;;;;;;6216784;23;20024;-81
2023/03/23 10:48:32;;;;;;;12.38;5.63;;;21.60;62.00;;;;;;6216261;23;20001;-82
2023/03/23 10:51:01;;;;;;;8.15;5.00;;;21.80;61.60;;;;;;6215928;23;19996;-81
2023/03/23 10:53:35;;;;;;;9.10;5.20;;;21.90;60.80;;;;;;6215419;23;20004;-82
2023/03/23 10:56:01;;;;;;;8.05;5.32;;;22.10;60.20;;;;;;6215270;23;20092;-82
2023/03/23 10:58:31;;;;;;;9.95;6.25;;;22.10;59.40;;;;;;6215822;23;20019;-81
2023/03/23 11:01:00;;;;;;;10.15;6.30;;;22.10;59.40;;;;;;6215868;23;20000;-81
2023/03/23 11:03:48;;;;;;;13.20;8.32;;;22.20;59.60;;;;;;6225236;23;20008;-81
2023/03/23 11:06:35;;;;;;;10.82;7.32;;;22.30;59.00;;;;;;6241684;23;20016;-82
2023/03/23 11:09:09;;;;;;;10.50;6.47;;;22.30;59.30;;;;;;6226461;23;20004;-82
2023/03/23 11:11:42;;;;;;;6.95;5.00;;;22.30;59.20;;;;;;6220237;23;20001;-81
2023/03/23 11:14:19;;;;;;;6.35;4.85;;;22.40;58.20;;;;;;6220241;23;20007;-81
2023/03/23 11:17:00;;;;;;;6.50;4.78;;;22.40;57.60;;;;;;6220531;23;19997;-82
2023/03/23 11:19:31;;;;;;;6.43;4.30;;;22.50;57.30;;;;;;6217201;23;19997;-81
2023/03/23 11:22:07;;;;;;;6.55;3.88;;;22.60;56.90;;;;;;6214866;23;20011;-81
2023/03/23 11:24:47;;;;;;;8.00;4.18;;;22.70;57.00;;;;;;6214907;23;20008;-81
2023/03/23 11:27:15;;;;;;;6.50;4.32;;;23.00;56.20;;;;;;6213798;23;20087;-81
2023/03/23 11:30:08;;;;;;;7.53;5.35;;;23.20;56.00;;;;;;6215064;23;20010;-81
2023/03/23 11:32:35;;;;;;;5.07;3.65;;;23.50;54.80;;;;;;6213913;23;19996;-82
2023/03/23 11:35:05;;;;;;;5.13;4.03;;;23.80;54.60;;;;;;6216409;23;20004;-82
2023/03/23 11:37:40;;;;;;;7.03;5.13;;;24.10;54.50;;;;;;6217558;23;20434;-82
2023/03/23 11:40:08;;;;;;;9.05;5.40;;;24.40;53.70;;;;;;6217584;23;19996;-82
2023/03/23 11:42:44;;;;;;;9.38;6.43;;;24.90;53.40;;;;;;6216917;23;20004;-82
2023/03/23 11:45:22;;;;;;;10.38;7.60;;;25.80;52.30;;;;;;6217642;23;20075;-82
2023/03/23 11:48:24;;;;;;;8.38;6.93;;;26.50;50.30;;;;;;6217214;23;20072;-82
2023/03/23 11:51:12;;;;;;;8.20;6.70;;;26.70;49.60;;;;;;6218714;23;20001;-78
2023/03/23 11:53:55;;;;;;;13.13;7.30;;;26.60;48.90;;;;;;6219140;23;20408;-82
2023/03/23 11:56:33;;;;;;;12.93;8.73;;;27.10;49.30;;;;;;6222355;23;20001;-82
2023/03/23 11:58:59;;;;;;;11.90;8.32;;;28.00;48.00;;;;;;6219750;23;20063;-83
2023/03/23 12:01:50;;;;;;;12.88;9.05;;;28.70;46.80;;;;;;6219275;23;20419;-82
2023/03/23 12:04:51;;;;;;;17.42;11.40;;;29.60;46.20;;;;;;6217444;23;20009;-82
2023/03/23 12:07:31;;;;;;;10.93;8.77;;;30.30;44.20;;;;;;6216537;23;20031;-81
2023/03/23 12:10:15;;;;;;;10.35;8.55;;;30.70;44.40;;;;;;6217083;23;20010;-81
2023/03/23 12:12:44;;;;;;;10.93;8.70;;;30.90;43.60;;;;;;6216818;23;20000;-81
2023/03/23 12:15:19;;;;;;;15.70;10.38;;;30.70;43.80;;;;;;6216508;23;20046;-83
2023/03/23 12:18:09;;;;;;;12.90;10.15;;;30.40;43.40;;;;;;6213988;23;20000;-82
2023/03/23 12:20:37;;;;;;;14.50;11.43;;;29.90;43.60;;;;;;6217565;23;19997;-82
2023/03/23 12:23:09;;;;;;;13.45;11.35;;;29.10;44.20;;;;;;6217361;23;20004;-82
2023/03/23 12:25:49;;;;;;;16.05;12.02;;;28.30;45.40;;;;;;6215704;23;20016;-82
2023/03/23 12:28:49;;;;;;;14.32;11.25;;;27.60;46.30;;;;;;6217188;23;20007;-83
2023/03/23 12:31:18;;;;;;;16.55;12.45;;;26.90;47.10;;;;;;6216399;23;20430;-82
2023/03/23 12:34:15;;;;;;;18.83;12.33;;;26.50;48.30;;;;;;6216572;23;20024;-82
2023/03/23 12:37:18;;;;;;;15.13;10.57;;;26.30;49.30;;;;;;6216220;23;20005;-83
2023/03/23 12:40:11;;;;;;;12.68;9.95;;;26.20;49.70;;;;;;6216325;23;20411;-82
2023/03/23 12:43:16;;;;;;;13.27;9.80;;;26.10;49.50;;;;;;6216118;23;20008;-83
2023/03/23 12:46:06;;;;;;;14.60;10.00;;;26.20;49.80;;;;;;6216145;23;20004;-84
2023/03/23 12:48:48;;;;;;;14.10;8.48;;;26.50;49.30;;;;;;6188559;23;20087;-83
2023/03/23 12:51:29;;;;;;;12.57;8.65;;;26.70;48.80;;;;;;6215537;23;20072;-83
2023/03/23 12:54:20;;;;;;;12.13;8.10;;;27.00;47.00;;;;;;6190360;23;20084;-83
2023/03/23 12:56:58;;;;;;;13.88;8.20;;;27.50;46.80;;;;;;6216856;23;20004;-84